Time;durP1;ratioP1;P1;durP2;ratioP2;P2;SDS_P1;SDS_P2;PMS_P1;PMS_P2;Temp;Humidity;BMP_temperature;BMP_pressure;BME280_temperature;BME280_humidity;BME280_pressure;Samples;Min_cycle;Max_cycle;Signal;HPM_P1;HPM_P2
2023/05/13 00:01:14;;;;;;;;;;;;;;;10.02;100.00;96426.56;4982696;28;19960;-72
2023/05/13 00:03:40;;;;;;;;;;;;;;;10.01;100.00;96428.38;4982804;28;19964;-73
2023/05/13 00:06:06;;;;;;;;;;;;;;;10.02;100.00;96423.97;4982797;28;19954;-73
2023/05/13 00:08:31;;;;;;;;;;;;;;;10.02;100.00;96419.50;4982909;28;20000;-73
2023/05/13 00:10:57;;;;;;;;;;;;;;;10.02;100.00;96427.38;4982859;28;19998;-72
2023/05/13 00:13:23;;;;;;;;;;;;;;;10.02;100.00;96422.13;4982848;28;19962;-73
2023/05/13 00:15:49;;;;;;;;;;;;;;;9.98;100.00;96413.09;4982380;28;20288;-69
2023/05/13 00:18:15;;;;;;;;;;;;;;;9.96;100.00;96415.91;4982615;28;19968;-79
2023/05/13 00:20:41;;;;;;;;;;;;;;;9.95;100.00;96419.56;4982720;28;19964;-67
2023/05/13 00:23:07;;;;;;;;;;;;;;;9.95;100.00;96421.38;4982939;28;19988;-68
2023/05/13 00:25:33;;;;;;;;;;;;;;;9.94;100.00;96420.56;4982405;28;20027;-68
2023/05/13 00:27:59;;;;;;;;;;;;;;;9.93;100.00;96418.97;4982372;28;20030;-68
2023/05/13 00:30:25;;;;;;;;;;;;;;;9.93;100.00;96418.16;4982381;28;20270;-68
2023/05/13 00:32:50;;;;;;;;;;;;;;;9.91;100.00;96418.38;4982431;28;19959;-67
2023/05/13 00:35:16;;;;;;;;;;;;;;;9.91;100.00;96410.53;4982665;28;19964;-66
2023/05/13 00:37:42;;;;;;;;;;;;;;;9.90;100.00;96408.13;5049092;28;19983;-71
2023/05/13 00:40:21;;;;;;;;;;;;;;;9.88;100.00;96408.31;4982421;28;20012;-72
2023/05/13 00:42:47;;;;;;;;;;;;;;;9.87;100.00;96411.97;4982511;28;20130;-72
2023/05/13 00:45:13;;;;;;;;;;;;;;;9.87;100.00;96411.16;4982522;28;19967;-72
2023/05/13 00:47:40;;;;;;;;;;;;;;;9.84;100.00;96416.84;4982481;28;19997;-72
2023/05/13 00:50:07;;;;;;;;;;;;;;;9.77;100.00;96411.66;4982636;28;19975;-72
2023/05/13 00:52:33;;;;;;;;;;;;;;;9.72;100.00;96414.09;4982144;28;19956;-69
2023/05/13 00:54:59;;;;;;;;;;;;;;;9.70;100.00;96421.34;4982072;28;20169;-72
2023/05/13 00:57:25;;;;;;;;;;;;;;;9.65;100.00;96413.34;4983141;28;19976;-67
2023/05/13 00:59:51;;;;;;;;;;;;;;;9.61;100.00;96412.16;4984088;28;20131;-67
2023/05/13 01:02:23;;;;;;;;;;;;;;;9.59;100.00;96414.19;4985507;28;19951;-67
2023/05/13 01:04:52;;;;;;;;;;;;;;;9.54;100.00;96415.63;4985582;28;20018;-68
2023/05/13 01:07:32;;;;;;;;;;;;;;;9.53;100.00;96419.28;4985535;28;20244;-68
2023/05/13 01:10:04;;;;;;;;;;;;;;;9.53;100.00;96415.84;4985543;28;19972;-67
2023/05/13 01:12:34;;;;;;;;;;;;;;;9.52;100.00;96419.47;4985178;28;20218;-78
2023/05/13 01:15:20;;;;;;;;;;;;;;;9.50;100.00;96426.75;4985169;28;19959;-72
2023/05/13 01:17:50;;;;;;;;;;;;;;;9.47;100.00;96425.34;4985467;28;19969;-72
2023/05/13 01:20:19;;;;;;;;;;;;;;;9.46;100.00;96428.97;4985168;28;20296;-72
2023/05/13 01:22:46;;;;;;;;;;;;;;;9.47;100.00;96433.19;4985370;28;19961;-72
2023/05/13 01:25:11;;;;;;;;;;;;;;;9.48;100.00;96423.53;4985317;28;19967;-73
2023/05/13 01:27:38;;;;;;;;;;;;;;;9.48;100.00;96426.16;4985359;28;19957;-72
2023/05/13 01:30:04;;;;;;;;;;;;;;;9.50;100.00;96413.66;4985252;28;19970;-74
2023/05/13 01:32:30;;;;;;;;;;;;;;;9.51;100.00;96428.34;4984773;28;19963;-69
2023/05/13 01:34:56;;;;;;;;;;;;;;;9.52;100.00;96425.50;4984955;28;20024;-69
2023/05/13 01:37:22;;;;;;;;;;;;;;;9.51;100.00;96434.38;4985160;28;19982;-69
2023/05/13 01:39:48;;;;;;;;;;;;;;;9.53;100.00;96426.31;4985261;28;20024;-68
2023/05/13 01:42:14;;;;;;;;;;;;;;;9.51;100.00;96431.78;4985095;28;20138;-69
2023/05/13 01:44:40;;;;;;;;;;;;;;;9.51;100.00;96438.81;4984897;28;19940;-69
2023/05/13 01:47:06;;;;;;;;;;;;;;;9.50;100.00;96437.22;4984812;28;20034;-69
2023/05/13 01:49:32;;;;;;;;;;;;;;;9.52;100.00;96433.38;4984872;28;20047;-70
2023/05/13 01:51:58;;;;;;;;;;;;;;;9.53;100.00;96431.53;4984884;28;19958;-73
2023/05/13 01:54:24;;;;;;;;;;;;;;;9.54;100.00;96436.56;4984953;28;19960;-73
2023/05/13 01:56:51;;;;;;;;;;;;;;;9.55;100.00;96434.75;4984903;28;20239;-73
2023/05/13 01:59:17;;;;;;;;;;;;;;;9.57;100.00;96424.06;4984811;28;19932;-73
2023/05/13 02:01:44;;;;;;;;;;;;;;;9.59;100.00;96429.91;5051811;28;20002;-73
2023/05/13 02:04:10;;;;;;;;;;;;;;;9.61;100.00;96435.72;4984697;28;19962;-73
2023/05/13 02:06:36;;;;;;;;;;;;;;;9.62;100.00;96422.44;4984763;28;19955;-69
2023/05/13 02:09:02;;;;;;;;;;;;;;;9.64;100.00;96423.03;4984275;28;20005;-72
2023/05/13 02:11:27;;;;;;;;;;;;;;;9.65;100.00;96429.06;4984233;28;19964;-68
2023/05/13 02:13:53;;;;;;;;;;;;;;;9.63;100.00;96429.25;4984117;28;19966;-68
2023/05/13 02:16:19;;;;;;;;;;;;;;;9.62;100.00;96430.28;4984343;28;19997;-70
2023/05/13 02:18:45;;;;;;;;;;;;;;;9.61;100.00;96426.06;4984336;28;19967;-70
2023/05/13 02:21:11;;;;;;;;;;;;;;;9.62;100.00;96424.25;4984309;28;20041;-70
2023/05/13 02:23:37;;;;;;;;;;;;;;;9.62;100.00;96426.88;4984552;28;19964;-70
2023/05/13 02:26:02;;;;;;;;;;;;;;;9.62;100.00;96427.66;4984428;28;19961;-75
2023/05/13 02:28:28;;;;;;;;;;;;;;;9.60;100.00;96423.66;4984444;28;20228;-70
2023/05/13 02:30:54;;;;;;;;;;;;;;;9.59;100.00;96432.53;4984393;28;19955;-71
2023/05/13 02:33:20;;;;;;;;;;;;;;;9.55;100.00;96435.56;4984581;28;19986;-70
2023/05/13 02:35:46;;;;;;;;;;;;;;;9.55;100.00;96430.34;4984193;28;19965;-70
2023/05/13 02:38:12;;;;;;;;;;;;;;;9.54;100.00;96427.91;4984231;28;19960;-71
2023/05/13 02:40:38;;;;;;;;;;;;;;;9.51;100.00;96428.34;4983835;28;19962;-70
2023/05/13 02:43:03;;;;;;;;;;;;;;;9.50;100.00;96432.78;4984325;28;19965;-72
2023/05/13 02:45:29;;;;;;;;;;;;;;;9.47;100.00;96435.81;4984015;28;19962;-72
2023/05/13 02:47:56;;;;;;;;;;;;;;;9.48;100.00;96434.00;4984224;28;20229;-71
2023/05/13 02:50:22;;;;;;;;;;;;;;;9.48;100.00;96434.00;5050962;28;19964;-70
2023/05/13 02:52:47;;;;;;;;;;;;;;;9.46;100.00;96428.97;4983954;28;20268;-70
2023/05/13 02:55:13;;;;;;;;;;;;;;;9.45;100.00;96429.16;4983945;28;20030;-70
2023/05/13 02:57:39;;;;;;;;;;;;;;;9.47;100.00;96429.75;4983459;28;19959;-70
2023/05/13 03:00:05;;;;;;;;;;;;;;;9.45;100.00;96423.94;4983830;28;19958;-71
2023/05/13 03:02:31;;;;;;;;;;;;;;;9.45;100.00;96426.56;4983720;28;19981;-70
2023/05/13 03:04:57;;;;;;;;;;;;;;;9.43;100.00;96425.97;4983850;28;19962;-68
2023/05/13 03:07:23;;;;;;;;;;;;;;;9.42;100.00;96427.78;4983473;28;19962;-68
2023/05/13 03:09:49;;;;;;;;;;;;;;;9.41;100.00;96426.19;4983467;28;20234;-68
2023/05/13 03:12:15;;;;;;;;;;;;;;;9.39;100.00;96424.81;4983569;28;19956;-68
2023/05/13 03:14:43;;;;;;;;;;;;;;;9.35;100.00;96429.66;4983441;28;20020;-67
2023/05/13 03:17:09;;;;;;;;;;;;;;;9.30;100.00;96417.19;4983299;28;20155;-68
2023/05/13 03:19:35;;;;;;;;;;;;;;;9.28;100.00;96421.00;4983675;28;19965;-89
2023/05/13 03:22:02;;;;;;;;;;;;;;;9.27;100.00;96425.47;4982798;28;19963;-71
2023/05/13 03:24:28;;;;;;;;;;;;;;;9.26;100.00;96433.50;4983647;28;20132;-70
2023/05/13 03:26:54;;;;;;;;;;;;;;;9.25;100.00;96434.53;4983021;28;19951;-70
2023/05/13 03:29:20;;;;;;;;;;;;;;;9.22;100.00;96433.16;4983420;28;19967;-71
2023/05/13 03:31:47;;;;;;;;;;;;;;;9.23;100.00;96433.94;4983734;28;19970;-70
2023/05/13 03:34:12;;;;;;;;;;;;;;;9.20;100.00;96429.94;4983396;28;19948;-71
2023/05/13 03:36:38;;;;;;;;;;;;;;;9.17;100.00;96430.34;4983000;28;19999;-70
2023/05/13 03:39:04;;;;;;;;;;;;;;;9.17;100.00;96435.56;5049963;28;20001;-75
2023/05/13 03:41:30;;;;;;;;;;;;;;;9.16;100.00;96436.59;4983255;28;19974;-73
2023/05/13 03:43:56;;;;;;;;;;;;;;;9.16;100.00;96441.81;4983402;28;19955;-73
2023/05/13 03:46:22;;;;;;;;;;;;;;;9.14;100.00;96439.41;4982664;28;19960;-73
2023/05/13 03:48:48;;;;;;;;;;;;;;;9.13;100.00;96437.81;4983059;28;19957;-73
2023/05/13 03:51:14;;;;;;;;;;;;;;;9.12;100.00;96444.03;4983041;28;19962;-73
2023/05/13 03:53:40;;;;;;;;;;;;;;;9.12;100.00;96440.63;4983074;28;19959;-72
2023/05/13 03:56:06;;;;;;;;;;;;;;;9.10;100.00;96440.84;4982561;28;19961;-72
2023/05/13 03:58:32;;;;;;;;;;;;;;;9.09;100.00;96443.66;5049711;28;19997;-71
2023/05/13 04:00:58;;;;;;;;;;;;;;;9.10;100.00;96442.66;4982939;28;19976;-73
2023/05/13 04:03:24;;;;;;;;;;;;;;;9.09;100.00;96439.25;4982618;28;19970;-72
2023/05/13 04:05:50;;;;;;;;;;;;;;;9.11;100.00;96441.63;4982612;28;19950;-72
2023/05/13 04:08:16;;;;;;;;;;;;;;;9.09;100.00;96441.03;4982940;28;19959;-71
2023/05/13 04:10:42;;;;;;;;;;;;;;;9.08;100.00;96442.84;4982776;28;19952;-72
2023/05/13 04:13:08;;;;;;;;;;;;;;;9.07;100.00;96440.44;4982985;28;20032;-72
2023/05/13 04:15:34;;;;;;;;;;;;;;;9.05;100.00;96439.84;4983038;28;19958;-68
2023/05/13 04:17:59;;;;;;;;;;;;;;;9.01;100.00;96439.47;4982666;28;19963;-73
2023/05/13 04:20:25;;;;;;;;;;;;;;;9.00;100.00;96442.28;4982582;28;19957;-68
2023/05/13 04:22:51;;;;;;;;;;;;;;;8.99;100.00;96451.13;4982688;28;20009;-68
2023/05/13 04:25:17;;;;;;;;;;;;;;;8.97;100.00;96453.97;4982328;28;19956;-68
2023/05/13 04:27:43;;;;;;;;;;;;;;;8.98;100.00;96457.38;4982690;28;19959;-69
2023/05/13 04:30:09;;;;;;;;;;;;;;;8.98;100.00;96458.19;4982224;28;19998;-69
2023/05/13 04:32:35;;;;;;;;;;;;;;;8.98;100.00;96460.00;4982948;28;19978;-68
2023/05/13 04:35:01;;;;;;;;;;;;;;;8.97;100.00;96461.81;4986143;28;20245;-70
2023/05/13 04:37:27;;;;;;;;;;;;;;;8.97;100.00;96459.22;4985960;28;19963;-70
2023/05/13 04:39:53;;;;;;;;;;;;;;;8.98;100.00;96463.41;4985764;28;19983;-71
2023/05/13 04:42:19;;;;;;;;;;;;;;;9.00;100.00;96468.44;4985635;28;20270;-71
2023/05/13 04:44:44;;;;;;;;;;;;;;;9.02;100.00;96471.66;4985402;28;19959;-70
2023/05/13 04:47:10;;;;;;;;;;;;;;;9.03;100.00;96470.63;4985754;28;19962;-70
2023/05/13 04:49:36;;;;;;;;;;;;;;;9.05;100.00;96477.28;4985992;28;19957;-71
2023/05/13 04:52:03;;;;;;;;;;;;;;;9.06;100.00;96478.09;4985964;28;19964;-68
2023/05/13 04:54:28;;;;;;;;;;;;;;;9.09;100.00;96485.50;4985730;28;19964;-70
2023/05/13 04:56:55;;;;;;;;;;;;;;;9.09;100.00;96475.88;5053038;28;20040;-75
2023/05/13 04:59:21;;;;;;;;;;;;;;;9.10;100.00;96481.91;4985753;28;20109;-75
2023/05/13 05:01:46;;;;;;;;;;;;;;;9.11;100.00;96480.88;4985904;28;19963;-75
2023/05/13 05:04:12;;;;;;;;;;;;;;;9.11;100.00;96480.88;4985281;28;19956;-75
2023/05/13 05:06:38;;;;;;;;;;;;;;;9.12;100.00;96479.88;4985272;28;19962;-75
2023/05/13 05:09:07;;;;;;;;;;;;;;;9.13;100.00;96489.31;4985253;28;20145;-75
2023/05/13 05:11:33;;;;;;;;;;;;;;;9.09;100.00;96491.56;4985267;28;19958;-69
2023/05/13 05:14:01;;;;;;;;;;;;;;;9.08;100.00;96492.56;4985035;28;19959;-69
2023/05/13 05:16:27;;;;;;;;;;;;;;;9.08;100.00;96495.19;4985362;28;19981;-69
2023/05/13 05:18:53;;;;;;;;;;;;;;;9.11;100.00;96507.03;4985318;28;20001;-68
2023/05/13 05:21:19;;;;;;;;;;;;;;;9.12;100.00;96499.00;4985251;28;19973;-68
2023/05/13 05:23:45;;;;;;;;;;;;;;;9.15;100.00;96503.00;4984854;28;19966;-68
2023/05/13 05:26:11;;;;;;;;;;;;;;;9.17;100.00;96508.81;4985348;28;19966;-68
2023/05/13 05:28:38;;;;;;;;;;;;;;;9.20;100.00;96508.44;4985270;28;19961;-72
2023/05/13 05:31:04;;;;;;;;;;;;;;;9.24;100.00;96506.19;4985307;28;19968;-71
2023/05/13 05:33:34;;;;;;;;;;;;;;;9.24;100.00;96512.25;5051204;28;20004;-71
2023/05/13 05:36:00;;;;;;;;;;;;;;;9.24;100.00;96512.25;4984829;28;20236;-73
2023/05/13 05:38:31;;;;;;;;;;;;;;;9.23;100.00;96513.22;4984899;28;19956;-71
2023/05/13 05:40:57;;;;;;;;;;;;;;;9.24;100.00;96514.84;4984805;28;19963;-71
2023/05/13 05:43:23;;;;;;;;;;;;;;;9.24;100.00;96514.84;4984837;28;19960;-71
2023/05/13 05:45:48;;;;;;;;;;;;;;;9.24;100.00;96520.09;4984574;28;19965;-71
2023/05/13 05:48:14;;;;;;;;;;;;;;;9.25;100.00;96520.88;4984932;28;19950;-70
2023/05/13 05:50:40;;;;;;;;;;;;;;;9.24;100.00;96517.47;4984584;28;20020;-68
2023/05/13 05:53:06;;;;;;;;;;;;;;;9.24;100.00;96516.66;4984997;28;20002;-68
2023/05/13 05:55:32;;;;;;;;;;;;;;;9.24;100.00;96516.66;4984880;28;19971;-69
2023/05/13 05:58:02;;;;;;;;;;;;;;;9.22;100.00;96521.28;4984337;28;19942;-69
2023/05/13 06:00:28;;;;;;;;;;;;;;;9.21;100.00;96515.25;4984428;28;19964;-68
2023/05/13 06:02:55;;;;;;;;;;;;;;;9.23;100.00;96520.28;4984785;28;19969;-68
2023/05/13 06:05:22;;;;;;;;;;;;;;;9.22;100.00;96516.88;4984398;28;19953;-76
2023/05/13 06:07:48;;;;;;;;;;;;;;;9.21;100.00;96515.25;4984819;28;19961;-85
2023/05/13 06:10:14;;;;;;;;;;;;;;;9.24;100.00;96519.25;4984426;28;19961;-75
2023/05/13 06:12:40;;;;;;;;;;;;;;;9.26;100.00;96512.00;4984455;28;20292;-75
2023/05/13 06:15:09;;;;;;;;;;;;;;;9.28;100.00;96520.47;4984465;28;19961;-76
2023/05/13 06:17:35;;;;;;;;;;;;;;;9.30;100.00;96526.28;4984485;28;19969;-75
2023/05/13 06:20:02;;;;;;;;;;;;;;;9.31;100.00;96522.66;4984088;28;19983;-76
2023/05/13 06:22:28;;;;;;;;;;;;;;;9.33;100.00;96524.06;4984488;28;19961;-75
2023/05/13 06:24:53;;;;;;;;;;;;;;;9.37;100.00;96523.66;4984459;28;19963;-69
2023/05/13 06:27:19;;;;;;;;;;;;;;;9.35;100.00;96522.03;4984004;28;20030;-70
2023/05/13 06:29:45;;;;;;;;;;;;;;;9.39;100.00;96525.06;4984667;28;19959;-70
2023/05/13 06:32:11;;;;;;;;;;;;;;;9.42;100.00;96529.06;4984525;28;19994;-69
2023/05/13 06:34:38;;;;;;;;;;;;;;;9.44;100.00;96532.28;5051605;28;19959;-70
2023/05/13 06:37:04;;;;;;;;;;;;;;;9.46;100.00;96540.72;4984141;28;20127;-70
2023/05/13 06:39:30;;;;;;;;;;;;;;;9.46;100.00;96540.72;4984007;28;19950;-70
2023/05/13 06:41:56;;;;;;;;;;;;;;;9.47;100.00;96540.53;4983968;28;19972;-75
2023/05/13 06:44:22;;;;;;;;;;;;;;;9.51;100.00;96541.72;5034385;28;19958;-73
2023/05/13 06:46:48;;;;;;;;;;;;;;;9.55;100.00;96535.06;4984057;28;20005;-71
2023/05/13 06:49:14;;;;;;;;;;;;;;;9.63;100.00;96543.66;4983556;28;20372;-72
2023/05/13 06:51:40;;;;;;;;;;;;;;;9.66;100.00;96538.81;4983954;28;19961;-71
2023/05/13 06:54:05;;;;;;;;;;;;;;;9.70;100.00;96534.78;4983446;28;19961;-72
2023/05/13 06:56:33;;;;;;;;;;;;;;;9.78;100.00;96548.63;4983223;28;20140;-72
2023/05/13 06:58:59;;;;;;;;;;;;;;;9.83;100.00;96535.72;4983535;28;19957;-72
2023/05/13 07:01:25;;;;;;;;;;;;;;;9.88;100.00;96534.06;4983471;28;19973;-70
2023/05/13 07:03:51;;;;;;;;;;;;;;;9.93;100.00;96546.50;4983930;28;19961;-69
2023/05/13 07:06:16;;;;;;;;;;;;;;;10.00;100.00;96543.88;4983980;28;19956;-68
2023/05/13 07:08:42;;;;;;;;;;;;;;;10.01;100.00;96540.22;4983555;28;19956;-68
2023/05/13 07:11:08;;;;;;;;;;;;;;;10.05;100.00;96547.44;4983583;28;19964;-69
2023/05/13 07:13:34;;;;;;;;;;;;;;;10.08;100.00;96552.28;4983557;28;20189;-68
2023/05/13 07:16:01;;;;;;;;;;;;;;;10.12;100.00;96555.25;4983570;28;19964;-69
2023/05/13 07:18:27;;;;;;;;;;;;;;;10.13;100.00;96551.66;4983050;28;19959;-69
2023/05/13 07:20:55;;;;;;;;;;;;;;;10.14;100.00;96548.00;4983675;28;19964;-85
2023/05/13 07:23:23;;;;;;;;;;;;;;;10.16;100.00;96548.59;4984101;28;20105;-70
2023/05/13 07:25:50;;;;;;;;;;;;;;;10.19;100.00;96548.19;4983558;28;19948;-70
2023/05/13 07:28:19;;;;;;;;;;;;;;;10.24;100.00;96548.34;4983538;28;20139;-70
2023/05/13 07:30:45;;;;;;;;;;;;;;;10.30;100.00;96542.25;4983552;28;19955;-70
2023/05/13 07:33:11;;;;;;;;;;;;;;;10.33;100.00;96543.66;4983089;28;20019;-71
2023/05/13 07:35:37;;;;;;;;;;;;;;;10.39;100.00;96548.03;4983126;28;19977;-70
2023/05/13 07:38:03;;;;;;;;;;;;;;;10.44;100.00;96539.56;4983269;28;19996;-84
2023/05/13 07:40:32;;;;;;;;;;;;;;;10.47;100.00;96534.66;4983114;28;19955;-70
2023/05/13 07:42:58;;;;;;;;;;;;;;;10.54;100.00;96540.69;4983120;28;20152;-70
2023/05/13 07:45:23;;;;;;;;;;;;;;;10.61;100.00;96545.84;4983099;28;19958;-70
2023/05/13 07:47:49;;;;;;;;;;;;;;;10.69;100.00;96548.22;4982727;28;19964;-70
2023/05/13 07:50:15;;;;;;;;;;;;;;;10.80;100.00;96535.41;4983239;28;19954;-70
2023/05/13 07:52:42;;;;;;;;;;;;;;;10.87;100.00;96531.69;4983151;28;20044;-70
2023/05/13 07:55:09;;;;;;;;;;;;;;;10.95;100.00;96541.91;4982675;28;20244;-70
2023/05/13 07:57:35;;;;;;;;;;;;;;;11.04;100.00;96547.66;4983374;28;19949;-69
2023/05/13 08:00:02;;;;;;;;;;;;;;;11.13;100.00;96545.56;4982672;28;19956;-74
2023/05/13 08:02:33;;;;;;;;;;;;;;;11.18;100.00;96550.94;4982640;28;19984;-73
2023/05/13 08:04:59;;;;;;;;;;;;;;;11.28;100.00;96543.38;4983526;28;19968;-73
2023/05/13 08:07:25;;;;;;;;;;;;;;;11.35;100.00;96540.66;4982410;28;20223;-73
2023/05/13 08:09:51;;;;;;;;;;;;;;;11.36;100.00;96537.03;4982752;28;19961;-73
2023/05/13 08:12:17;;;;;;;;;;;;;;;11.33;100.00;96537.44;4982899;28;19962;-73
2023/05/13 08:14:43;;;;;;;;;;;;;;;11.31;100.00;96544.75;4982900;28;20176;-69
2023/05/13 08:17:09;;;;;;;;;;;;;;;11.28;100.00;96540.75;4982461;28;20177;-72
2023/05/13 08:19:35;;;;;;;;;;;;;;;11.27;100.00;96551.47;4982844;28;20122;-84
2023/05/13 08:22:01;;;;;;;;;;;;;;;11.25;100.00;96550.88;4982213;28;19967;-84
2023/05/13 08:24:27;;;;;;;;;;;;;;;11.27;100.00;96546.22;4982351;28;20199;-84
2023/05/13 08:26:53;;;;;;;;;;;;;;;11.31;100.00;96553.41;4982944;28;20322;-84
2023/05/13 08:29:19;;;;;;;;;;;;;;;11.31;100.00;96550.78;4982334;28;20033;-84
2023/05/13 08:31:44;;;;;;;;;;;;;;;11.33;100.00;96537.44;4982732;28;19955;-84
2023/05/13 08:34:10;;;;;;;;;;;;;;;11.32;100.00;96546.38;4982369;28;19974;-71
2023/05/13 08:36:36;;;;;;;;;;;;;;;11.36;100.00;96552.78;4982620;28;19960;-70
2023/05/13 08:39:02;;;;;;;;;;;;;;;11.42;100.00;96551.88;4982406;28;19953;-71
2023/05/13 08:41:28;;;;;;;;;;;;;;;11.45;100.00;96546.19;4982340;28;19986;-71
2023/05/13 08:43:58;;;;;;;;;;;;;;;11.47;100.00;96546.78;4982634;28;19956;-71
2023/05/13 08:46:25;;;;;;;;;;;;;;;11.50;100.00;96541.06;4982422;28;20245;-71
2023/05/13 08:48:53;;;;;;;;;;;;;;;11.54;100.00;96547.50;4981859;28;19952;-71
2023/05/13 08:51:19;;;;;;;;;;;;;;;11.62;100.00;96540.34;4982521;28;19946;-71
2023/05/13 08:53:46;;;;;;;;;;;;;;;11.65;100.00;96538.06;4982740;28;19962;-71
2023/05/13 08:56:15;;;;;;;;;;;;;;;11.68;100.00;96547.34;4982388;28;19958;-68
2023/05/13 08:58:41;;;;;;;;;;;;;;;11.68;100.00;96539.47;4982057;28;20052;-68
2023/05/13 09:01:07;;;;;;;;;;;;;;;11.66;100.00;96552.00;4981950;28;19951;-68
2023/05/13 09:03:33;;;;;;;;;;;;;;;11.61;100.00;96543.97;4982062;28;19957;-68
2023/05/13 09:06:00;;;;;;;;;;;;;;;11.57;100.00;96559.41;4982092;28;19957;-68
2023/05/13 09:08:26;;;;;;;;;;;;;;;11.53;100.00;96553.00;4981963;28;19967;-69
2023/05/13 09:10:52;;;;;;;;;;;;;;;11.47;100.00;96562.53;4981710;28;20030;-73
2023/05/13 09:13:18;;;;;;;;;;;;;;;11.42;100.00;96554.50;4982176;28;19984;-68
2023/05/13 09:15:44;;;;;;;;;;;;;;;11.36;100.00;96555.41;4982168;28;19981;-68
2023/05/13 09:18:10;;;;;;;;;;;;;;;11.34;100.00;96555.63;4981512;28;20205;-69
2023/05/13 09:20:36;;;;;;;;;;;;;;;11.37;100.00;96567.50;4984179;28;20136;-68
2023/05/13 09:23:03;;;;;;;;;;;;;;;11.37;100.00;96560.41;4984862;28;19970;-68
2023/05/13 09:25:29;;;;;;;;;;;;;;;11.38;100.00;96563.84;4985600;28;20143;-68
2023/05/13 09:27:57;;;;;;;;;;;;;;;11.41;100.00;96568.66;4985141;28;19952;-70
2023/05/13 09:30:27;;;;;;;;;;;;;;;11.46;100.00;96574.06;5052097;28;19975;-73
2023/05/13 09:33:22;;;;;;;;;;;;;;;11.50;100.00;96561.28;4985291;28;19954;-83
2023/05/13 09:35:49;;;;;;;;;;;;;;;11.46;100.00;96558.28;4993632;28;19967;-83
2023/05/13 09:38:19;;;;;;;;;;;;;;;11.47;99.84;96551.25;4984641;28;20173;-83
2023/05/13 09:40:52;;;;;;;;;;;;;;;11.48;100.00;96563.34;4984674;28;19943;-83
2023/05/13 09:43:20;;;;;;;;;;;;;;;11.44;96.00;96535.91;4984676;28;20266;-84
2023/05/13 09:45:46;;;;;;;;;;;;;;;11.45;99.41;96548.81;4984655;28;19970;-85
2023/05/13 09:48:13;;;;;;;;;;;;;;;11.43;100.00;96566.63;4984705;28;19957;-71
2023/05/13 09:50:47;;;;;;;;;;;;;;;11.40;100.00;96572.31;4984987;28;19956;-73
2023/05/13 09:53:12;;;;;;;;;;;;;;;11.42;100.00;96572.88;4984951;28;19956;-72
2023/05/13 09:55:43;;;;;;;;;;;;;;;11.43;100.00;96565.84;4984758;28;19960;-73
2023/05/13 09:58:10;;;;;;;;;;;;;;;11.40;99.69;96563.63;4984784;28;19961;-73
2023/05/13 10:00:42;;;;;;;;;;;;;;;11.36;100.00;96579.03;4984858;28;20251;-73
2023/05/13 10:03:09;;;;;;;;;;;;;;;11.29;97.96;96567.78;4984680;28;19968;-73
2023/05/13 10:05:35;;;;;;;;;;;;;;;11.31;100.00;96586.75;4984768;28;20114;-73
2023/05/13 10:08:05;;;;;;;;;;;;;;;11.33;100.00;96596.00;4984799;28;19963;-70
2023/05/13 10:10:33;;;;;;;;;;;;;;;11.32;99.10;96578.66;4984336;28;19959;-70
2023/05/13 10:13:02;;;;;;;;;;;;;;;11.28;100.00;96584.59;4984382;28;19979;-70
2023/05/13 10:15:29;;;;;;;;;;;;;;;11.22;100.00;96595.94;4984342;28;19956;-70
2023/05/13 10:17:56;;;;;;;;;;;;;;;11.23;100.00;96597.53;4984482;28;20014;-70
2023/05/13 10:20:24;;;;;;;;;;;;;;;11.28;100.00;96595.09;4984283;28;19962;-70
2023/05/13 10:22:51;;;;;;;;;;;;;;;11.33;100.00;96600.47;4984466;28;19969;-73
2023/05/13 10:25:17;;;;;;;;;;;;;;;11.38;100.00;96592.72;4984403;28;19949;-71
2023/05/13 10:27:43;;;;;;;;;;;;;;;11.43;100.00;96597.34;4984483;28;19965;-73
2023/05/13 10:30:09;;;;;;;;;;;;;;;11.45;100.00;96590.84;4984219;28;19955;-73
2023/05/13 10:32:37;;;;;;;;;;;;;;;11.46;100.00;96592.44;4984381;28;20114;-73
2023/05/13 10:35:05;;;;;;;;;;;;;;;11.45;100.00;96592.66;4984221;28;19951;-73
2023/05/13 10:37:51;;;;;;;;;;;;;;;11.48;100.00;96593.00;4983911;28;20012;-73
2023/05/13 10:40:24;;;;;;;;;;;;;;;11.50;98.14;96571.78;4984288;28;20152;-73
2023/05/13 10:43:06;;;;;;;;;;;;;;;11.51;100.00;96589.19;4984150;28;19965;-68
2023/05/13 10:45:32;;;;;;;;;;;;;;;11.52;100.00;96591.56;4984105;28;19958;-71
2023/05/13 10:48:05;;;;;;;;;;;;;;;11.57;100.00;96598.81;4984139;28;19965;-71
2023/05/13 10:50:31;;;;;;;;;;;;;;;11.65;100.00;96608.19;4984057;28;19940;-71
2023/05/13 10:52:57;;;;;;;;;;;;;;;11.61;95.94;96565.78;4984252;28;20170;-71
2023/05/13 10:55:25;;;;;;;;;;;;;;;11.52;97.38;96580.25;4983612;28;19952;-71
2023/05/13 10:58:07;;;;;;;;;;;;;;;11.44;96.08;96570.03;4983556;28;19960;-71
2023/05/13 11:00:33;;;;;;;;;;;;;;;11.43;99.78;96586.84;4983989;28;19957;-70
2023/05/13 11:03:26;;;;;;;;;;;;;;;11.50;98.42;96584.94;4983985;28;20255;-69
2023/05/13 11:06:03;;;;;;;;;;;;;;;11.51;97.31;96568.16;4984929;28;19961;-69
2023/05/13 11:08:36;;;;;;;;;;;;;;;11.53;96.37;96568.75;4983814;28;19988;-69
2023/05/13 11:11:20;;;;;;;;;;;;;;;11.53;96.80;96582.66;4983791;28;20134;-69
2023/05/13 11:13:48;;;;;;;;;;;;;;;11.51;96.96;96584.72;4983741;28;19958;-70
2023/05/13 11:16:14;;;;;;;;;;;;;;;11.56;96.00;96569.09;4983435;28;19961;-69
2023/05/13 11:18:40;;;;;;;;;;;;;;;11.57;96.54;96575.97;4983422;28;19963;-71
2023/05/13 11:21:07;;;;;;;;;;;;;;;11.56;97.10;96576.97;4983459;28;19973;-71
2023/05/13 11:23:48;;;;;;;;;;;;;;;11.65;98.93;96587.97;4983524;28;20250;-71
2023/05/13 11:26:17;;;;;;;;;;;;;;;11.85;99.83;96590.34;4983544;28;19961;-70
2023/05/13 11:28:53;;;;;;;;;;;;;;;11.98;96.44;96584.94;4983527;28;19972;-71
2023/05/13 11:31:20;;;;;;;;;;;;;;;12.09;96.72;96585.22;4983672;28;19955;-71
2023/05/13 11:34:05;;;;;;;;;;;;;;;12.10;93.13;96558.72;4983459;28;19952;-70
2023/05/13 11:36:31;;;;;;;;;;;;;;;12.12;95.11;96572.44;4983424;28;20159;-68
2023/05/13 11:39:09;;;;;;;;;;;;;;;12.15;93.27;96561.47;4983169;28;19951;-73
2023/05/13 11:41:36;;;;;;;;;;;;;;;12.09;94.99;96570.25;4983331;28;19954;-73
2023/05/13 11:44:03;;;;;;;;;;;;;;;12.07;94.87;96568.88;4982508;28;19966;-73
2023/05/13 11:46:29;;;;;;;;;;;;;;;12.04;94.58;96571.97;4983264;28;19963;-73
2023/05/13 11:48:55;;;;;;;;;;;;;;;11.99;94.77;96575.25;4983229;28;19962;-73
2023/05/13 11:51:21;;;;;;;;;;;;;;;11.97;95.19;96578.09;4982792;28;19984;-73
2023/05/13 11:53:47;;;;;;;;;;;;;;;11.95;96.02;96582.78;4983133;28;20048;-73
2023/05/13 11:56:13;;;;;;;;;;;;;;;11.92;95.08;96583.22;4983298;28;19993;-76
2023/05/13 11:58:39;;;;;;;;;;;;;;;11.94;96.28;96593.50;4982809;28;19961;-71
2023/05/13 12:01:05;;;;;;;;;;;;;;;11.93;95.48;96584.81;4982840;28;19993;-71
2023/05/13 12:03:31;;;;;;;;;;;;;;;12.00;98.78;96608.38;4982389;28;19977;-71
2023/05/13 12:06:00;;;;;;;;;;;;;;;12.07;97.03;96585.44;4983118;28;20165;-70
2023/05/13 12:08:26;;;;;;;;;;;;;;;12.20;96.55;96576.59;5049450;28;19956;-71
2023/05/13 12:10:52;;;;;;;;;;;;;;;12.28;97.40;96586.75;4982842;28;20140;-71
2023/05/13 12:13:18;;;;;;;;;;;;;;;12.30;95.65;96573.38;4982957;28;20182;-75
2023/05/13 12:15:45;;;;;;;;;;;;;;;12.26;91.30;96551.19;4982931;28;20238;-70
2023/05/13 12:18:11;;;;;;;;;;;;;;;12.20;95.14;96579.22;4982793;28;19960;-83
2023/05/13 12:20:37;;;;;;;;;;;;;;;12.09;93.25;96569.44;4983052;28;19947;-84
2023/05/13 12:23:04;;;;;;;;;;;;;;;12.03;95.68;96580.84;4982636;28;19969;-83
2023/05/13 12:25:43;;;;;;;;;;;;;;;12.00;96.97;96594.44;4982406;28;19960;-82
2023/05/13 12:28:15;;;;;;;;;;;;;;;12.02;95.42;96589.78;4982339;28;20225;-83
2023/05/13 12:30:52;;;;;;;;;;;;;;;12.01;97.95;96606.56;4982446;28;19956;-82
2023/05/13 12:33:20;;;;;;;;;;;;;;;11.98;96.18;96590.22;4982028;28;19959;-71
2023/05/13 12:35:47;;;;;;;;;;;;;;;11.99;97.99;96606.81;4982543;28;19952;-70
2023/05/13 12:38:15;;;;;;;;;;;;;;;12.04;97.34;96601.66;4982516;28;19963;-69
2023/05/13 12:40:41;;;;;;;;;;;;;;;12.05;98.10;96605.88;4982602;28;19965;-70
2023/05/13 12:43:07;;;;;;;;;;;;;;;12.06;98.24;96601.44;4981883;28;19987;-70